createdAt,value
2023-01-25T00:02:10.111Z,97.65
2023-01-25T00:04:57.804Z,103.95
2023-01-25T00:07:45.080Z,90.07
2023-01-25T00:10:32.473Z,109.43
2023-01-25T00:13:19.973Z,95.45
2023-01-25T00:16:07.781Z,99.05
2023-01-25T00:18:57.061Z,88.32
2023-01-25T00:21:45.097Z,97.57
2023-01-25T00:24:32.627Z,101.47
2023-01-25T00:27:20.117Z,87.63
2023-01-25T00:30:09.307Z,91.95
2023-01-25T00:33:03.002Z,85.22
2023-01-25T00:35:52.019Z,98.90
2023-01-25T00:38:40.070Z,86.82
2023-01-25T00:41:28.230Z,80.18
2023-01-25T00:44:15.597Z,87.25
2023-01-25T00:47:03.250Z,98.63
2023-01-25T00:49:50.873Z,93.75
2023-01-25T00:52:40.582Z,86.28
2023-01-25T00:55:28.234Z,97.32
2023-01-25T00:58:15.690Z,89.57
2023-01-25T01:01:03.629Z,86.43
2023-01-25T01:03:53.294Z,85.35
2023-01-25T01:06:41.523Z,91.57
2023-01-25T01:09:30.367Z,92.93
2023-01-25T01:12:18.630Z,102.13
2023-01-25T01:15:07.781Z,85.65
2023-01-25T01:17:55.759Z,89.28
2023-01-25T01:20:49.172Z,94.50
2023-01-25T01:23:37.597Z,99.40
2023-01-25T01:26:26.703Z,81.32
2023-01-25T01:29:14.757Z,83.97
2023-01-25T01:32:02.570Z,76.90
2023-01-25T01:34:50.289Z,79.95
2023-01-25T01:37:37.492Z,112.53
2023-01-25T01:40:25.109Z,118.80
2023-01-25T01:43:19.608Z,103.45
2023-01-25T01:46:13.275Z,97.25
2023-01-25T01:49:02.930Z,93.18
2023-01-25T01:51:56.780Z,102.40
2023-01-25T01:54:51.064Z,88.75
2023-01-25T01:57:43.824Z,102.15
2023-01-25T02:00:36.291Z,100.78
2023-01-25T02:03:24.486Z,95.32
2023-01-25T02:06:16.866Z,92.53
2023-01-25T02:09:04.741Z,101.57
2023-01-25T02:11:53.692Z,91.50
2023-01-25T02:14:49.260Z,88.93
2023-01-25T02:17:42.602Z,92.75
2023-01-25T02:20:38.223Z,128.18
2023-01-25T02:23:30.753Z,123.53
2023-01-25T02:26:20.333Z,110.90
2023-01-25T02:29:10.175Z,112.82
2023-01-25T02:32:01.483Z,97.18
2023-01-25T02:34:49.267Z,91.78
2023-01-25T02:37:36.861Z,88.63
2023-01-25T02:40:24.639Z,120.80
2023-01-25T02:43:13.611Z,87.13
2023-01-25T02:46:10.957Z,119.47
2023-01-25T02:48:59.297Z,120.35
2023-01-25T02:51:51.793Z,106.18
2023-01-25T02:54:39.845Z,100.80
2023-01-25T02:57:27.851Z,94.63
2023-01-25T03:00:18.876Z,101.68
2023-01-25T03:03:07.369Z,94.15
2023-01-25T03:05:55.309Z,120.32
2023-01-25T03:08:42.827Z,109.38
2023-01-25T03:11:30.596Z,118.05
2023-01-25T03:14:20.231Z,109.82
2023-01-25T03:17:08.902Z,102.97
2023-01-25T03:19:56.162Z,106.28
2023-01-25T03:22:44.696Z,107.95
2023-01-25T03:25:32.750Z,110.85
2023-01-25T03:28:29.439Z,97.10
2023-01-25T03:31:18.208Z,93.10
2023-01-25T03:34:07.203Z,102.57
2023-01-25T03:36:59.339Z,102.97
2023-01-25T03:39:47.213Z,82.93
2023-01-25T03:42:35.595Z,93.38
2023-01-25T03:45:23.992Z,74.63
2023-01-25T03:48:11.824Z,103.68
2023-01-25T03:51:01.189Z,95.28
2023-01-25T03:53:49.654Z,99.05
2023-01-25T03:56:38.252Z,93.03
2023-01-25T03:59:32.651Z,92.35
2023-01-25T04:02:20.158Z,96.38
2023-01-25T04:05:09.452Z,84.10
2023-01-25T04:07:59.260Z,111.93
2023-01-25T04:10:57.189Z,92.78
2023-01-25T04:13:45.044Z,92.55
2023-01-25T04:16:36.218Z,90.53
2023-01-25T04:19:41.850Z,82.05
2023-01-25T04:22:33.244Z,82.80
2023-01-25T04:25:22.172Z,90.95
2023-01-25T04:28:13.618Z,99.65
2023-01-25T04:31:01.479Z,108.85
2023-01-25T04:33:54.868Z,100.53
2023-01-25T04:36:43.529Z,90.90
2023-01-25T04:39:31.453Z,87.82
2023-01-25T04:42:20.419Z,87.47
2023-01-25T04:45:12.642Z,85.03
2023-01-25T04:48:02.847Z,94.45
2023-01-25T04:50:51.825Z,80.60
2023-01-25T04:53:42.081Z,91.63
2023-01-25T04:56:31.199Z,99.93
2023-01-25T04:59:21.215Z,106.75
2023-01-25T05:02:09.129Z,126.05
2023-01-25T05:04:56.974Z,116.70
2023-01-25T05:07:44.531Z,108.88
2023-01-25T05:10:32.324Z,92.32
2023-01-25T05:13:43.919Z,103.30
2023-01-25T05:16:41.226Z,100.83
2023-01-25T05:19:28.891Z,90.75
2023-01-25T05:22:21.069Z,115.38
2023-01-25T05:25:26.361Z,91.18
2023-01-25T05:28:14.616Z,108.85
2023-01-25T05:31:19.791Z,83.38
2023-01-25T05:34:09.900Z,111.05
2023-01-25T05:36:58.119Z,107.30
2023-01-25T05:39:46.181Z,86.05
2023-01-25T05:42:33.655Z,107.13
2023-01-25T05:45:22.658Z,95.55
2023-01-25T05:48:09.999Z,83.88
2023-01-25T05:51:00.499Z,81.00
2023-01-25T05:53:49.300Z,100.93
2023-01-25T05:56:37.870Z,109.28
2023-01-25T05:59:25.790Z,86.53
2023-01-25T06:02:13.672Z,92.40
2023-01-25T06:05:02.017Z,87.07
2023-01-25T06:07:51.526Z,80.60
2023-01-25T06:10:40.833Z,82.05
2023-01-25T06:13:30.325Z,90.30
2023-01-25T06:16:20.618Z,83.00
2023-01-25T06:19:46.352Z,90.13
2023-01-25T06:22:43.348Z,93.40
2023-01-25T06:25:32.569Z,97.13
2023-01-25T06:28:19.904Z,90.22
2023-01-25T06:31:09.373Z,102.22
2023-01-25T06:33:59.246Z,96.18
2023-01-25T06:36:49.509Z,121.88
2023-01-25T06:39:36.824Z,91.30
2023-01-25T06:42:27.056Z,89.70
2023-01-25T06:45:14.855Z,90.60
2023-01-25T06:48:02.539Z,107.05
2023-01-25T06:50:58.215Z,80.57
2023-01-25T06:53:47.622Z,103.03
2023-01-25T06:56:35.068Z,103.72
2023-01-25T06:59:23.897Z,89.45
2023-01-25T07:02:15.405Z,90.53
2023-01-25T07:05:03.062Z,76.38
2023-01-25T07:07:50.423Z,98.15
2023-01-25T07:10:37.986Z,85.75
2023-01-25T07:13:25.964Z,88.15
2023-01-25T07:16:17.410Z,76.20
2023-01-25T07:19:05.516Z,72.38
2023-01-25T07:21:52.897Z,64.25
2023-01-25T07:24:40.413Z,68.85
2023-01-25T07:27:28.196Z,73.45
2023-01-25T07:30:16.675Z,80.45
2023-01-25T07:33:05.578Z,68.57
2023-01-25T07:35:53.911Z,81.18
2023-01-25T07:38:41.721Z,72.60
2023-01-25T07:41:29.717Z,72.03
2023-01-25T07:44:17.308Z,70.63
2023-01-25T07:47:07.901Z,77.82
2023-01-25T07:49:56.844Z,72.00
2023-01-25T07:52:44.609Z,76.30
2023-01-25T07:55:32.397Z,72.30
2023-01-25T07:58:20.158Z,65.40
2023-01-25T08:01:08.632Z,60.92
2023-01-25T08:03:57.360Z,61.92
2023-01-25T08:06:46.749Z,57.78
2023-01-25T08:09:34.501Z,46.92
2023-01-25T08:12:22.606Z,62.47
2023-01-25T08:15:10.761Z,56.05
2023-01-25T08:18:00.933Z,50.95
2023-01-25T08:20:48.590Z,40.22
2023-01-25T08:23:38.175Z,47.85
2023-01-25T08:26:25.646Z,45.67
2023-01-25T08:29:13.984Z,47.45
2023-01-25T08:32:04.499Z,42.30
2023-01-25T08:34:52.348Z,43.65
2023-01-25T08:37:39.782Z,43.88
2023-01-25T08:40:28.739Z,41.22
2023-01-25T08:43:15.979Z,47.63
2023-01-25T08:46:03.594Z,36.63
2023-01-25T08:48:54.237Z,37.58
2023-01-25T08:51:41.521Z,37.42
2023-01-25T08:54:29.078Z,37.30
2023-01-25T08:57:18.052Z,31.13
2023-01-25T09:00:06.596Z,33.17
2023-01-25T09:02:54.303Z,38.30
2023-01-25T09:05:42.054Z,40.05
2023-01-25T09:08:29.806Z,39.40
2023-01-25T09:11:19.292Z,37.63
2023-01-25T09:14:08.350Z,33.72
2023-01-25T09:16:55.983Z,35.90
2023-01-25T09:19:43.546Z,32.78
2023-01-25T09:22:31.593Z,30.00
2023-01-25T09:25:19.171Z,38.35
2023-01-25T09:28:11.501Z,30.15
2023-01-25T09:31:19.131Z,32.25
2023-01-25T09:34:30.629Z,33.97
2023-01-25T09:37:17.928Z,31.67
2023-01-25T09:40:07.730Z,33.53
2023-01-25T09:43:01.826Z,30.10
2023-01-25T09:45:49.499Z,29.75
2023-01-25T09:48:43.848Z,30.13
2023-01-25T09:51:46.698Z,31.55
2023-01-25T09:54:46.966Z,31.00
2023-01-25T09:57:38.744Z,29.85
2023-01-25T10:00:33.284Z,32.70
2023-01-25T10:03:27.467Z,33.22
2023-01-25T10:06:19.086Z,31.52
2023-01-25T10:09:25.547Z,33.75
2023-01-25T10:12:19.633Z,31.88
2023-01-25T10:15:20.085Z,31.48
2023-01-25T10:18:20.289Z,25.15
2023-01-25T10:21:13.767Z,27.42
2023-01-25T10:24:35.966Z,24.65
2023-01-25T10:27:33.264Z,26.15
2023-01-25T10:30:27.885Z,22.92
2023-01-25T10:33:19.176Z,27.73
2023-01-25T10:36:08.318Z,26.73
2023-01-25T10:38:59.363Z,32.10
2023-01-25T10:41:52.060Z,26.95
2023-01-25T10:44:39.844Z,32.92
2023-01-25T10:47:32.912Z,29.38
2023-01-25T10:50:50.580Z,27.55
2023-01-25T10:53:39.865Z,26.40
2023-01-25T10:56:28.526Z,29.77
2023-01-25T10:59:25.032Z,27.98
2023-01-25T11:02:46.588Z,26.20
2023-01-25T11:05:35.718Z,24.08
2023-01-25T11:08:33.270Z,24.90
2023-01-25T11:11:32.334Z,22.95
2023-01-25T11:14:24.273Z,24.13
2023-01-25T11:17:25.708Z,26.85
2023-01-25T11:20:21.677Z,29.15
2023-01-25T11:23:24.471Z,22.25
2023-01-25T11:26:17.878Z,24.75
2023-01-25T11:29:13.981Z,25.38
2023-01-25T11:32:03.822Z,22.83
2023-01-25T11:34:52.322Z,22.30
2023-01-25T11:37:59.161Z,23.48
2023-01-25T11:40:50.705Z,26.73
2023-01-25T11:43:56.891Z,26.27
2023-01-25T11:46:54.091Z,19.38
2023-01-25T11:49:52.901Z,21.88
2023-01-25T11:53:01.647Z,24.58
2023-01-25T11:55:55.848Z,23.77
2023-01-25T11:59:00.596Z,20.08
2023-01-25T12:02:01.891Z,23.33
2023-01-25T12:05:09.673Z,26.15
2023-01-25T12:08:19.129Z,22.27
2023-01-25T12:11:14.433Z,22.48
2023-01-25T12:14:10.900Z,26.52
2023-01-25T12:17:10.350Z,21.75
2023-01-25T12:20:24.955Z,20.40
2023-01-25T12:23:31.794Z,27.73
2023-01-25T12:26:27.168Z,22.15
2023-01-25T12:29:25.250Z,25.60
2023-01-25T12:32:18.704Z,25.38
2023-01-25T12:35:25.084Z,25.05
2023-01-25T12:38:17.660Z,27.45
2023-01-25T12:41:12.209Z,23.92
2023-01-25T12:44:09.074Z,24.05
2023-01-25T12:47:02.935Z,22.02
2023-01-25T12:49:54.992Z,24.95
2023-01-25T12:52:49.008Z,27.60
2023-01-25T12:55:36.354Z,28.90
2023-01-25T12:58:37.739Z,29.73
2023-01-25T13:01:33.744Z,28.25
2023-01-25T13:04:34.439Z,22.95
2023-01-25T13:07:28.581Z,29.10
2023-01-25T13:10:24.129Z,27.42
2023-01-25T13:13:23.283Z,29.48
2023-01-25T13:16:38.400Z,28.55
2023-01-25T13:19:42.808Z,23.77
2023-01-25T13:23:00.529Z,29.48
2023-01-25T13:25:49.631Z,25.67
2023-01-25T13:28:43.554Z,23.45
2023-01-25T13:31:51.820Z,22.05
2023-01-25T13:34:59.597Z,29.67
2023-01-25T13:40:45.260Z,30.27
2023-01-25T13:43:34.676Z,27.35
2023-01-25T13:46:25.857Z,30.02
2023-01-25T13:49:22.601Z,34.08
2023-01-25T13:55:03.525Z,31.05
2023-01-25T13:57:51.664Z,29.70
2023-01-25T14:00:49.859Z,31.02
2023-01-25T14:03:42.476Z,29.08
2023-01-25T14:06:32.005Z,27.95
2023-01-25T14:09:21.765Z,26.80
2023-01-25T14:12:12.057Z,28.95
2023-01-25T14:15:11.700Z,29.55
2023-01-25T14:18:13.372Z,35.92
2023-01-25T14:21:17.302Z,30.85
2023-01-25T14:24:11.739Z,32.80
2023-01-25T14:26:59.198Z,35.38
2023-01-25T14:29:49.764Z,37.15
2023-01-25T14:32:37.475Z,34.10
2023-01-25T14:35:43.581Z,27.90
2023-01-25T14:38:39.400Z,33.47
2023-01-25T14:41:31.164Z,31.88
2023-01-25T14:44:20.362Z,34.58
2023-01-25T14:47:28.918Z,42.53
2023-01-25T14:50:36.169Z,45.92
2023-01-25T14:53:26.089Z,49.10
2023-01-25T14:56:26.615Z,53.00
2023-01-25T14:59:29.360Z,46.42
2023-01-25T15:02:24.815Z,47.42
2023-01-25T15:05:21.284Z,42.83
2023-01-25T15:08:17.035Z,41.50
2023-01-25T15:11:20.365Z,32.78
2023-01-25T15:14:19.869Z,39.03
2023-01-25T15:17:07.344Z,36.10
2023-01-25T15:19:54.752Z,34.35
2023-01-25T15:22:42.364Z,38.15
2023-01-25T15:25:29.973Z,37.92
2023-01-25T15:28:18.789Z,35.60
2023-01-25T15:31:07.110Z,40.35
2023-01-25T15:33:55.383Z,35.35
2023-01-25T15:36:42.939Z,39.53
2023-01-25T15:39:31.567Z,40.75
2023-01-25T15:42:18.996Z,43.33
2023-01-25T15:45:10.510Z,40.20
2023-01-25T15:48:00.875Z,35.60
2023-01-25T15:50:48.545Z,51.33
2023-01-25T15:53:36.076Z,36.40
2023-01-25T15:56:27.410Z,36.28
2023-01-25T15:59:18.310Z,37.70
2023-01-25T16:02:13.278Z,35.13
2023-01-25T16:05:00.824Z,35.47
2023-01-25T16:07:48.364Z,34.70
2023-01-25T16:10:36.114Z,40.72
2023-01-25T16:13:24.092Z,36.30
2023-01-25T16:16:18.882Z,41.22
2023-01-25T16:19:08.215Z,37.83
2023-01-25T16:21:55.732Z,37.45
2023-01-25T16:24:43.537Z,56.17
2023-01-25T16:27:35.915Z,64.60
2023-01-25T16:30:27.493Z,89.55
2023-01-25T16:33:15.038Z,83.20
2023-01-25T16:36:14.949Z,80.97
2023-01-25T16:39:10.509Z,64.45
2023-01-25T16:41:58.029Z,55.92
2023-01-25T16:44:48.009Z,54.45
2023-01-25T16:47:35.350Z,47.28
2023-01-25T16:50:24.173Z,41.45
2023-01-25T16:53:12.795Z,41.08
2023-01-25T16:56:00.852Z,40.47
2023-01-25T16:58:49.622Z,39.83
2023-01-25T17:01:38.482Z,43.45
2023-01-25T17:04:26.186Z,37.50
2023-01-25T17:07:13.871Z,53.97
2023-01-25T17:10:03.923Z,42.80
2023-01-25T17:12:51.994Z,53.13
2023-01-25T17:15:39.327Z,45.28
2023-01-25T17:18:26.631Z,40.95
2023-01-25T17:21:16.957Z,39.70
2023-01-25T17:24:05.114Z,38.53
2023-01-25T17:26:57.787Z,39.95
2023-01-25T17:29:46.090Z,42.40
2023-01-25T17:32:33.942Z,37.22
2023-01-25T17:35:21.349Z,37.35
2023-01-25T17:38:09.662Z,39.05
2023-01-25T17:40:57.180Z,41.88
2023-01-25T17:43:46.173Z,45.60
2023-01-25T17:46:37.422Z,46.42
2023-01-25T17:49:26.416Z,45.42
2023-01-25T17:52:13.987Z,42.25
2023-01-25T17:55:01.745Z,41.40
2023-01-25T17:57:51.258Z,33.25
2023-01-25T18:00:39.991Z,35.70
2023-01-25T18:03:27.902Z,36.17
2023-01-25T18:06:17.379Z,31.88
2023-01-25T18:09:07.291Z,32.13
2023-01-25T18:11:54.956Z,36.20
2023-01-25T18:14:42.393Z,35.53
2023-01-25T18:17:35.807Z,47.35
2023-01-25T18:20:23.231Z,37.10
2023-01-25T18:23:10.532Z,48.50
2023-01-25T18:25:58.033Z,38.47
2023-01-25T18:28:45.498Z,41.08
2023-01-25T18:31:33.178Z,37.92
2023-01-25T18:34:22.060Z,35.03
2023-01-25T18:37:19.268Z,32.50
2023-01-25T18:40:08.457Z,37.25
2023-01-25T18:42:56.283Z,35.60
2023-01-25T18:45:43.879Z,30.50
2023-01-25T18:48:31.870Z,38.67
2023-01-25T18:51:22.807Z,34.65
2023-01-25T18:54:10.719Z,38.30
2023-01-25T18:56:58.388Z,39.30
2023-01-25T18:59:46.343Z,49.42
2023-01-25T19:02:33.756Z,44.63
2023-01-25T19:05:21.791Z,44.15
2023-01-25T19:08:10.553Z,55.95
2023-01-25T19:11:02.368Z,56.88
2023-01-25T19:13:50.532Z,52.40
2023-01-25T19:16:38.226Z,45.47
2023-01-25T19:19:31.799Z,46.80
2023-01-25T19:22:19.505Z,43.05
2023-01-25T19:25:09.490Z,38.28
2023-01-25T19:27:57.145Z,37.90
2023-01-25T19:30:44.515Z,34.83
2023-01-25T19:33:32.407Z,34.75
2023-01-25T19:36:21.121Z,40.60
2023-01-25T19:39:10.269Z,38.17
2023-01-25T19:41:59.908Z,43.10
2023-01-25T19:44:48.156Z,45.03
2023-01-25T19:47:35.938Z,47.35
2023-01-25T19:50:23.347Z,42.47
2023-01-25T19:53:10.697Z,44.75
2023-01-25T19:56:02.953Z,45.08
2023-01-25T19:58:52.299Z,40.78
2023-01-25T20:01:44.748Z,41.40
2023-01-25T20:04:32.577Z,42.08
2023-01-25T20:07:20.432Z,33.50
2023-01-25T20:10:09.630Z,35.05
2023-01-25T20:12:57.276Z,33.53
2023-01-25T20:15:49.148Z,36.55
2023-01-25T20:18:37.520Z,35.78
2023-01-25T20:21:27.503Z,39.17
2023-01-25T20:24:15.258Z,36.03
2023-01-25T20:27:04.358Z,36.45
2023-01-25T20:29:53.849Z,32.15
2023-01-25T20:32:42.788Z,38.03
2023-01-25T20:35:31.477Z,33.42
2023-01-25T20:38:19.202Z,31.70
2023-01-25T20:41:08.488Z,33.08
2023-01-25T20:44:00.209Z,36.80
2023-01-25T20:46:48.113Z,29.45
2023-01-25T20:49:38.314Z,31.80
2023-01-25T20:52:26.372Z,29.48
2023-01-25T20:55:14.069Z,29.48
2023-01-25T20:58:02.219Z,34.03
2023-01-25T21:00:50.103Z,30.17
2023-01-25T21:03:37.420Z,31.10
2023-01-25T21:06:27.593Z,27.40
2023-01-25T21:09:15.422Z,33.33
2023-01-25T21:12:03.103Z,30.63
2023-01-25T21:14:51.478Z,33.00
2023-01-25T21:17:39.549Z,34.72
2023-01-25T21:20:27.622Z,32.72
2023-01-25T21:23:16.572Z,36.60
2023-01-25T21:26:05.696Z,36.03
2023-01-25T21:28:55.366Z,36.42
2023-01-25T21:31:43.579Z,33.58
2023-01-25T21:34:33.596Z,32.53
2023-01-25T21:37:22.505Z,33.80
2023-01-25T21:40:13.059Z,37.33
2023-01-25T21:43:00.433Z,39.03
2023-01-25T21:46:05.112Z,36.15
2023-01-25T21:49:11.340Z,38.83
2023-01-25T21:52:02.054Z,44.47
2023-01-25T21:54:49.638Z,43.33
2023-01-25T21:57:41.102Z,43.42
2023-01-25T22:00:29.141Z,45.10
2023-01-25T22:03:16.642Z,46.83
2023-01-25T22:06:04.501Z,52.10
2023-01-25T22:08:52.740Z,44.47
2023-01-25T22:11:40.331Z,36.92
2023-01-25T22:14:29.343Z,47.97
2023-01-25T22:17:18.919Z,40.38
2023-01-25T22:20:08.584Z,38.85
2023-01-25T22:22:56.427Z,36.20
2023-01-25T22:25:43.753Z,44.15
2023-01-25T22:28:34.475Z,48.63
2023-01-25T22:31:25.139Z,51.00
2023-01-25T22:34:12.689Z,43.50
2023-01-25T22:37:00.312Z,42.20
2023-01-25T22:39:48.393Z,51.70
2023-01-25T22:42:36.406Z,43.92
2023-01-25T22:45:24.143Z,50.33
2023-01-25T22:48:13.008Z,61.00
2023-01-25T22:51:04.475Z,55.03
2023-01-25T22:53:52.531Z,72.78
2023-01-25T22:56:40.439Z,64.07
2023-01-25T22:59:28.077Z,70.60
2023-01-25T23:02:15.626Z,63.28
2023-01-25T23:05:04.644Z,57.17
2023-01-25T23:07:52.458Z,53.97
2023-01-25T23:10:39.934Z,55.67
2023-01-25T23:13:27.480Z,54.83
2023-01-25T23:16:15.234Z,71.43
2023-01-25T23:19:02.114Z,57.58
2023-01-25T23:21:51.154Z,59.03
2023-01-25T23:24:38.806Z,50.05
2023-01-25T23:27:26.573Z,57.45
2023-01-25T23:30:14.775Z,57.38
2023-01-25T23:33:02.842Z,53.92
2023-01-25T23:35:50.814Z,51.03
2023-01-25T23:38:39.871Z,54.08
2023-01-25T23:41:29.654Z,60.53
2023-01-25T23:44:17.227Z,53.15
2023-01-25T23:47:05.631Z,50.63
2023-01-25T23:49:53.364Z,45.22
2023-01-25T23:52:40.749Z,47.38
2023-01-25T23:55:29.836Z,55.30
2023-01-25T23:58:17.493Z,58.83
